createdAt,value
2019-04-14T00:00:42.771Z,4.93
2019-04-14T00:03:26.106Z,4.91
2019-04-14T00:06:01.120Z,4.87
2019-04-14T00:08:33.357Z,4.90
2019-04-14T00:11:06.190Z,4.87
2019-04-14T00:13:37.538Z,4.80
2019-04-14T00:16:09.584Z,4.82
2019-04-14T00:18:42.616Z,4.80
2019-04-14T00:21:15.152Z,4.74
2019-04-14T00:23:47.721Z,4.74
2019-04-14T00:26:29.498Z,4.73
2019-04-14T00:29:00.932Z,4.64
2019-04-14T00:31:32.938Z,4.67
2019-04-14T00:34:18.524Z,4.66
2019-04-14T00:37:12.740Z,4.68
2019-04-14T00:39:48.912Z,4.60
2019-04-14T00:42:38.755Z,4.53
2019-04-14T00:45:32.159Z,4.45
2019-04-14T00:48:09.751Z,4.46
2019-04-14T00:50:38.805Z,4.48
2019-04-14T00:53:10.263Z,4.42
2019-04-14T00:55:42.188Z,4.45
2019-04-14T00:58:14.800Z,4.43
2019-04-14T01:00:47.356Z,4.34
2019-04-14T01:03:19.856Z,4.27
2019-04-14T01:05:52.509Z,4.23
2019-04-14T01:08:24.943Z,4.17
2019-04-14T01:10:58.271Z,4.16
2019-04-14T01:13:31.116Z,4.09
2019-04-14T01:16:08.925Z,4.07
2019-04-14T01:18:36.499Z,4.00
2019-04-14T01:21:08.926Z,3.95
2019-04-14T01:23:41.228Z,3.83
2019-04-14T01:26:13.782Z,3.78
2019-04-14T01:28:46.175Z,3.69
2019-04-14T01:31:18.455Z,3.56
2019-04-14T01:33:50.937Z,3.53
2019-04-14T01:36:23.475Z,3.42
2019-04-14T01:38:55.750Z,3.36
2019-04-14T01:41:28.229Z,3.28
2019-04-14T01:44:00.307Z,3.19
2019-04-14T01:46:33.965Z,3.17
2019-04-14T01:49:05.111Z,3.15
2019-04-14T01:51:48.697Z,3.11
2019-04-14T01:54:43.059Z,3.07
2019-04-14T01:57:32.867Z,3.10
2019-04-14T02:00:29.202Z,2.99
2019-04-14T02:03:00.560Z,2.96
2019-04-14T02:05:32.106Z,3.05
2019-04-14T02:08:04.462Z,2.98
2019-04-14T02:10:36.897Z,2.95
2019-04-14T02:13:09.276Z,2.94
2019-04-14T02:15:42.059Z,2.94
2019-04-14T02:18:14.279Z,2.95
2019-04-14T02:20:46.744Z,2.93
2019-04-14T02:23:19.255Z,2.95
2019-04-14T02:25:51.472Z,2.95
2019-04-14T02:28:22.755Z,2.97
2019-04-14T02:31:03.395Z,2.94
2019-04-14T02:33:50.312Z,2.95
2019-04-14T02:36:32.269Z,2.99
2019-04-14T02:39:06.094Z,3.00
2019-04-14T02:42:04.865Z,2.96
2019-04-14T02:46:49.660Z,2.88
2019-04-14T02:49:16.843Z,2.82
2019-04-14T02:51:52.058Z,2.77
2019-04-14T02:54:36.934Z,2.79
2019-04-14T02:59:27.056Z,2.76
2019-04-14T03:02:18.929Z,2.71
2019-04-14T03:04:41.320Z,2.76
2019-04-14T03:07:14.312Z,2.75
2019-04-14T03:09:42.352Z,2.72
2019-04-14T03:12:16.667Z,2.71
2019-04-14T03:17:58.463Z,2.67
2019-04-14T03:20:27.946Z,2.72
2019-04-14T03:22:55.799Z,2.70
2019-04-14T03:25:37.515Z,2.73
2019-04-14T03:34:18.507Z,2.59
2019-04-14T03:37:16.359Z,2.54
2019-04-14T03:39:00.280Z,2.47
2019-04-14T03:41:29.210Z,2.48
2019-04-14T03:43:55.011Z,2.47
2019-04-14T03:46:39.320Z,2.39
2019-04-14T03:49:06.281Z,2.37
2019-04-14T03:51:45.077Z,2.38
2019-04-14T03:54:20.501Z,2.41
2019-04-14T03:57:08.314Z,2.43
2019-04-14T03:59:39.758Z,2.44
2019-04-14T04:02:11.821Z,2.48
2019-04-14T04:04:44.427Z,2.52
2019-04-14T04:07:17.107Z,2.57
2019-04-14T04:09:54.096Z,2.61
2019-04-14T04:12:27.160Z,2.60
2019-04-14T04:14:59.633Z,2.58
2019-04-14T04:17:38.936Z,2.61
2019-04-14T04:20:18.138Z,2.63
2019-04-14T04:23:10.283Z,2.68
2019-04-14T04:25:57.265Z,2.73
2019-04-14T04:28:51.802Z,2.73
2019-04-14T04:31:30.910Z,2.70
2019-04-14T04:34:09.821Z,2.71
2019-04-14T04:36:57.473Z,2.75
2019-04-14T04:39:36.416Z,2.76
2019-04-14T04:42:09.034Z,2.78
2019-04-14T04:44:40.634Z,2.76
2019-04-14T04:47:12.381Z,2.70
2019-04-14T04:49:44.766Z,2.70
2019-04-14T04:52:17.203Z,2.71
2019-04-14T04:54:49.592Z,2.81
2019-04-14T04:57:22.078Z,2.85
2019-04-14T04:59:53.935Z,2.88
2019-04-14T05:02:26.695Z,2.98
2019-04-14T05:04:59.121Z,3.01
2019-04-14T05:07:31.666Z,3.04
2019-04-14T05:10:26.345Z,3.12
2019-04-14T05:13:07.920Z,3.14
2019-04-14T05:15:59.863Z,3.20
2019-04-14T05:18:31.372Z,3.22
2019-04-14T05:21:03.841Z,3.25
2019-04-14T05:23:36.618Z,3.29
2019-04-14T05:26:09.216Z,3.26
2019-04-14T05:28:41.674Z,3.31
2019-04-14T05:31:14.222Z,3.24
2019-04-14T05:33:46.800Z,3.32
2019-04-14T05:36:19.283Z,3.36
2019-04-14T05:38:51.855Z,3.47
2019-04-14T05:41:24.415Z,3.48
2019-04-14T05:43:59.727Z,3.73
2019-04-14T05:46:29.602Z,3.88
2019-04-14T05:49:02.298Z,3.93
2019-04-14T05:51:34.965Z,4.05
2019-04-14T05:54:07.818Z,4.26
2019-04-14T05:56:40.661Z,4.41
2019-04-14T05:59:13.428Z,4.61
2019-04-14T06:01:44.987Z,4.68
2019-04-14T06:04:17.838Z,4.65
2019-04-14T06:06:49.941Z,4.50
2019-04-14T06:09:21.445Z,4.81
2019-04-14T06:11:53.161Z,5.08
2019-04-14T06:14:24.526Z,5.18
2019-04-14T06:16:55.854Z,5.20
2019-04-14T06:19:36.457Z,5.25
2019-04-14T06:22:00.357Z,5.28
2019-04-14T06:24:31.819Z,5.34
2019-04-14T06:27:03.290Z,5.23
2019-04-14T06:29:34.737Z,5.36
2019-04-14T06:32:16.228Z,5.55
2019-04-14T06:35:11.199Z,5.65
2019-04-14T06:37:55.431Z,5.75
2019-04-14T06:40:28.560Z,6.10
2019-04-14T06:42:59.918Z,6.35
2019-04-14T06:45:32.938Z,6.78
2019-04-14T06:48:06.971Z,6.82
2019-04-14T06:50:38.335Z,6.99
2019-04-14T06:53:10.155Z,6.59
2019-04-14T06:55:41.466Z,7.22
2019-04-14T06:58:12.961Z,7.27
2019-04-14T07:00:44.442Z,7.36
2019-04-14T07:03:15.938Z,7.47
2019-04-14T07:05:47.480Z,8.01
2019-04-14T07:08:19.136Z,8.15
2019-04-14T07:10:50.778Z,8.42
2019-04-14T07:13:22.219Z,8.17
2019-04-14T07:15:53.977Z,7.86
2019-04-14T07:18:25.427Z,7.96
2019-04-14T07:20:57.703Z,8.14
2019-04-14T07:23:29.255Z,8.28
2019-04-14T07:26:00.606Z,8.56
2019-04-14T07:28:32.062Z,8.54
2019-04-14T07:31:21.322Z,8.72
2019-04-14T07:34:14.505Z,9.11
2019-04-14T07:37:03.738Z,9.28
2019-04-14T07:39:45.822Z,9.44
2019-04-14T07:42:22.421Z,9.52
2019-04-14T07:45:02.409Z,9.36
2019-04-14T07:47:38.784Z,9.83
2019-04-14T07:50:29.913Z,9.89
2019-04-14T07:53:12.418Z,9.47
2019-04-14T07:56:01.235Z,10.13
2019-04-14T07:58:51.565Z,10.36
2019-04-14T08:01:28.380Z,10.54
2019-04-14T08:04:18.212Z,10.69
2019-04-14T08:06:51.252Z,10.59
2019-04-14T08:09:22.621Z,10.57
2019-04-14T08:11:54.041Z,10.34
2019-04-14T08:14:25.519Z,10.44
2019-04-14T08:16:56.907Z,10.46
2019-04-14T08:19:28.393Z,10.46
2019-04-14T08:21:59.936Z,11.17
2019-04-14T08:24:31.329Z,10.77
2019-04-14T08:27:02.679Z,11.16
2019-04-14T08:29:34.161Z,11.38
2019-04-14T08:32:05.700Z,10.94
2019-04-14T08:34:38.872Z,10.24
2019-04-14T08:37:10.494Z,10.61
2019-04-14T08:39:42.047Z,11.51
2019-04-14T08:42:25.792Z,12.51
2019-04-14T08:44:58.373Z,12.48
2019-04-14T08:47:49.533Z,12.39
2019-04-14T08:50:42.292Z,12.96
2019-04-14T08:53:22.227Z,13.23
2019-04-14T08:56:07.807Z,14.04
2019-04-14T08:58:55.307Z,13.94
2019-04-14T09:01:48.632Z,14.82
2019-04-14T09:04:30.859Z,13.70
2019-04-14T09:07:09.457Z,12.21
2019-04-14T09:09:43.463Z,11.86
2019-04-14T09:12:37.176Z,12.95
2019-04-14T09:15:09.958Z,12.14
2019-04-14T09:17:41.412Z,11.16
2019-04-14T09:20:15.912Z,10.84
2019-04-14T09:22:47.572Z,10.08
2019-04-14T09:25:20.047Z,10.26
2019-04-14T09:27:51.570Z,10.78
2019-04-14T09:30:22.983Z,10.77
2019-04-14T09:32:54.552Z,11.27
2019-04-14T09:35:25.923Z,10.35
2019-04-14T09:37:57.267Z,10.66
2019-04-14T09:40:28.944Z,11.01
2019-04-14T09:43:00.713Z,11.28
2019-04-14T09:45:32.091Z,12.06
2019-04-14T09:48:03.956Z,12.43
2019-04-14T09:50:35.532Z,12.15
2019-04-14T09:53:07.349Z,13.58
2019-04-14T09:55:39.410Z,13.80
2019-04-14T09:58:10.812Z,14.55
2019-04-14T10:00:42.342Z,13.77
2019-04-14T10:03:13.938Z,12.79
2019-04-14T10:05:45.362Z,12.33
2019-04-14T10:08:16.819Z,13.97
2019-04-14T10:10:48.385Z,15.53
2019-04-14T10:13:20.235Z,15.32
2019-04-14T10:15:51.917Z,15.31
2019-04-14T10:18:23.191Z,15.38
2019-04-14T10:20:54.634Z,15.41
2019-04-14T10:23:25.940Z,15.39
2019-04-14T10:25:57.883Z,15.26
2019-04-14T10:28:29.649Z,14.07
2019-04-14T10:31:01.137Z,14.90
2019-04-14T10:33:32.640Z,15.17
2019-04-14T10:36:04.505Z,15.52
2019-04-14T10:38:36.057Z,15.12
2019-04-14T10:41:07.536Z,12.61
2019-04-14T10:43:39.013Z,12.59
2019-04-14T10:46:11.293Z,13.63
2019-04-14T10:48:43.607Z,13.22
2019-04-14T10:51:15.367Z,13.37
2019-04-14T10:53:47.662Z,12.63
2019-04-14T10:56:19.480Z,13.24
2019-04-14T10:58:51.422Z,12.93
2019-04-14T11:01:23.662Z,13.18
2019-04-14T11:03:55.697Z,12.56
2019-04-14T11:06:34.944Z,13.04
2019-04-14T11:09:13.964Z,13.69
2019-04-14T11:11:46.352Z,14.28
2019-04-14T11:14:17.792Z,14.73
2019-04-14T11:16:49.204Z,14.13
2019-04-14T11:19:21.012Z,13.61
2019-04-14T11:21:53.168Z,13.59
2019-04-14T11:24:24.572Z,13.67
2019-04-14T11:26:56.748Z,14.22
2019-04-14T11:29:28.126Z,14.13
2019-04-14T11:32:17.188Z,15.34
2019-04-14T11:35:16.228Z,15.71
2019-04-14T11:38:05.254Z,14.86
2019-04-14T11:40:42.089Z,15.51
2019-04-14T11:43:13.464Z,14.66
2019-04-14T11:45:44.979Z,14.41
2019-04-14T11:48:16.543Z,14.39
2019-04-14T11:50:48.121Z,14.89
2019-04-14T11:53:20.530Z,15.08
2019-04-14T11:55:52.087Z,15.58
2019-04-14T11:58:23.961Z,14.54
2019-04-14T12:01:29.616Z,14.29
2019-04-14T12:04:08.938Z,14.68
2019-04-14T12:07:17.560Z,15.18
2019-04-14T12:09:55.644Z,15.16
2019-04-14T12:12:27.091Z,14.57
2019-04-14T12:14:58.477Z,14.76
2019-04-14T12:17:29.933Z,15.46
2019-04-14T12:20:01.900Z,14.61
2019-04-14T12:22:34.024Z,15.22
2019-04-14T12:25:07.542Z,16.71
2019-04-14T12:27:42.595Z,16.81
2019-04-14T12:30:20.516Z,16.26
2019-04-14T12:32:52.054Z,17.53
2019-04-14T12:35:24.083Z,16.60
2019-04-14T12:37:55.686Z,15.16
2019-04-14T12:40:27.431Z,16.33
2019-04-14T12:43:09.353Z,16.39
2019-04-14T12:46:05.947Z,13.83
2019-04-14T12:48:47.664Z,13.48
2019-04-14T12:51:26.477Z,13.44
2019-04-14T12:53:58.799Z,13.85
2019-04-14T12:56:30.395Z,13.21
2019-04-14T12:59:23.170Z,12.76
2019-04-14T13:02:28.790Z,12.02
2019-04-14T13:05:00.243Z,12.12
2019-04-14T13:07:31.747Z,11.97
2019-04-14T13:10:03.262Z,12.87
2019-04-14T13:12:34.748Z,13.02
2019-04-14T13:15:07.026Z,13.07
2019-04-14T13:17:39.423Z,14.55
2019-04-14T13:20:12.189Z,14.69
2019-04-14T13:22:44.177Z,14.12
2019-04-14T13:25:16.320Z,14.22
2019-04-14T13:27:48.998Z,14.21
2019-04-14T13:30:26.078Z,14.40
2019-04-14T13:32:58.001Z,14.62
2019-04-14T13:35:29.942Z,14.85
2019-04-14T13:38:01.745Z,14.95
2019-04-14T13:40:33.539Z,14.54
2019-04-14T13:43:05.151Z,14.52
2019-04-14T13:45:36.811Z,14.55
2019-04-14T13:48:08.486Z,13.65
2019-04-14T13:50:40.252Z,14.35
2019-04-14T13:53:11.805Z,14.57
2019-04-14T13:55:43.415Z,14.11
2019-04-14T13:58:15.490Z,14.26
2019-04-14T14:01:01.047Z,14.54
2019-04-14T14:03:34.266Z,13.98
2019-04-14T14:06:05.919Z,14.23
2019-04-14T14:08:39.299Z,14.65
2019-04-14T14:11:18.567Z,13.06
2019-04-14T14:13:59.256Z,13.22
2019-04-14T14:16:58.516Z,12.63
2019-04-14T14:19:37.685Z,12.77
2019-04-14T14:22:20.016Z,12.65
2019-04-14T14:25:06.837Z,12.74
2019-04-14T14:27:38.292Z,12.72
2019-04-14T14:30:12.621Z,13.14
2019-04-14T14:32:44.520Z,13.13
2019-04-14T14:35:15.984Z,12.68
2019-04-14T14:37:47.415Z,12.63
2019-04-14T14:40:18.987Z,12.66
2019-04-14T14:42:50.415Z,12.70
2019-04-14T14:45:35.816Z,12.17
2019-04-14T14:48:25.846Z,12.52
2019-04-14T14:51:11.385Z,12.56
2019-04-14T14:53:42.815Z,13.02
2019-04-14T14:56:14.270Z,13.32
2019-04-14T14:58:45.733Z,13.56
2019-04-14T15:01:17.560Z,13.54
2019-04-14T15:03:49.237Z,13.46
2019-04-14T15:06:21.047Z,13.03
2019-04-14T15:08:52.728Z,12.74
2019-04-14T15:11:24.098Z,12.28
2019-04-14T15:13:55.814Z,11.89
2019-04-14T15:16:27.226Z,12.24
2019-04-14T15:18:58.512Z,12.12
2019-04-14T15:21:29.969Z,11.78
2019-04-14T15:24:01.465Z,11.69
2019-04-14T15:26:32.929Z,11.91
2019-04-14T15:29:04.460Z,12.19
2019-04-14T15:31:36.014Z,12.23
2019-04-14T15:34:10.536Z,12.28
2019-04-14T15:36:41.065Z,12.44
2019-04-14T15:39:13.012Z,12.18
2019-04-14T15:41:44.968Z,11.97
2019-04-14T15:44:16.680Z,12.39
2019-04-14T15:46:48.153Z,12.37
2019-04-14T15:49:19.533Z,12.53
2019-04-14T15:51:51.014Z,12.35
2019-04-14T15:54:25.260Z,12.51
2019-04-14T15:57:01.637Z,12.30
2019-04-14T15:59:43.544Z,11.68
2019-04-14T16:02:27.506Z,11.35
2019-04-14T16:05:05.973Z,11.86
2019-04-14T16:07:54.094Z,12.15
2019-04-14T16:10:46.113Z,12.43
2019-04-14T16:13:23.032Z,12.14
2019-04-14T16:16:04.256Z,11.85
2019-04-14T16:18:45.530Z,11.82
2019-04-14T16:21:16.912Z,11.92
2019-04-14T16:23:50.900Z,11.39
2019-04-14T16:26:40.422Z,10.95
2019-04-14T16:29:21.534Z,10.71
2019-04-14T16:32:08.167Z,10.55
2019-04-14T16:34:52.349Z,10.48
2019-04-14T16:37:23.799Z,10.58
2019-04-14T16:39:55.843Z,10.34
2019-04-14T16:42:28.311Z,10.22
2019-04-14T16:44:59.992Z,9.84
2019-04-14T16:47:31.393Z,9.69
2019-04-14T16:50:02.904Z,9.54
2019-04-14T16:52:47.090Z,9.40
2019-04-14T16:55:37.386Z,9.39
2019-04-14T16:58:39.718Z,9.36
2019-04-14T17:01:14.499Z,9.28
2019-04-14T17:03:45.826Z,9.17
2019-04-14T17:06:18.105Z,9.16
2019-04-14T17:08:49.927Z,9.08
2019-04-14T17:11:21.522Z,9.10
2019-04-14T17:14:00.579Z,9.06
2019-04-14T17:17:07.273Z,9.20
2019-04-14T17:20:09.615Z,9.21
2019-04-14T17:23:09.407Z,9.07
2019-04-14T17:26:09.402Z,9.25
2019-04-14T17:29:03.777Z,9.11
2019-04-14T17:31:53.062Z,8.97
2019-04-14T17:34:33.594Z,8.83
2019-04-14T17:37:13.104Z,8.68
2019-04-14T17:40:01.832Z,8.60
2019-04-14T17:42:52.630Z,8.68
2019-04-14T17:45:33.022Z,8.56
2019-04-14T17:48:29.688Z,8.52
2019-04-14T17:51:06.072Z,8.55
2019-04-14T17:53:59.908Z,8.53
2019-04-14T17:56:41.554Z,8.53
2019-04-14T17:59:17.251Z,8.39
2019-04-14T18:02:13.422Z,8.31
2019-04-14T18:05:16.206Z,8.30
2019-04-14T18:07:56.960Z,8.28
2019-04-14T18:10:35.456Z,8.32
2019-04-14T18:13:35.279Z,8.11
2019-04-14T18:16:22.928Z,8.14
2019-04-14T18:19:17.460Z,8.09
2019-04-14T18:21:48.911Z,8.10
2019-04-14T18:24:20.461Z,8.01
2019-04-14T18:26:52.065Z,7.97
2019-04-14T18:29:35.268Z,7.99
2019-04-14T18:32:24.713Z,8.01
2019-04-14T18:35:18.403Z,7.87
2019-04-14T18:38:15.514Z,7.90
2019-04-14T18:40:57.211Z,7.97
2019-04-14T18:43:46.674Z,7.91
2019-04-14T18:46:39.678Z,7.81
2019-04-14T18:49:34.807Z,7.83
2019-04-14T18:52:25.535Z,7.73
2019-04-14T18:55:16.865Z,7.73
2019-04-14T18:57:59.478Z,7.80
2019-04-14T19:00:38.891Z,7.71
2019-04-14T19:03:10.305Z,7.67
2019-04-14T19:05:42.067Z,7.64
2019-04-14T19:08:13.551Z,7.68
2019-04-14T19:10:49.985Z,7.59
2019-04-14T19:13:25.748Z,7.61
2019-04-14T19:16:07.361Z,7.48
2019-04-14T19:18:43.383Z,7.49
2019-04-14T19:21:16.985Z,7.59
2019-04-14T19:23:48.814Z,7.50
2019-04-14T19:26:20.274Z,7.41
2019-04-14T19:28:51.864Z,7.55
2019-04-14T19:31:23.342Z,7.50
2019-04-14T19:33:55.183Z,7.51
2019-04-14T19:36:26.678Z,7.54
2019-04-14T19:38:58.488Z,7.57
2019-04-14T19:41:29.921Z,7.40
2019-04-14T19:44:01.987Z,7.47
2019-04-14T19:46:33.559Z,7.40
2019-04-14T19:49:05.126Z,7.37
2019-04-14T19:51:41.169Z,7.40
2019-04-14T19:54:12.764Z,7.39
2019-04-14T19:56:44.554Z,7.41
2019-04-14T19:59:17.084Z,7.41
2019-04-14T20:01:48.610Z,7.45
2019-04-14T20:04:20.046Z,7.55
2019-04-14T20:06:51.424Z,7.57
2019-04-14T20:09:24.043Z,7.58
2019-04-14T20:11:55.590Z,7.66
2019-04-14T20:14:27.391Z,7.71
2019-04-14T20:17:17.949Z,7.54
2019-04-14T20:20:04.180Z,7.27
2019-04-14T20:23:00.733Z,7.31
2019-04-14T20:25:47.660Z,7.14
2019-04-14T20:28:37.999Z,7.33
2019-04-14T20:31:24.504Z,7.29
2019-04-14T20:33:55.993Z,7.39
2019-04-14T20:36:29.020Z,7.30
2019-04-14T20:39:00.853Z,7.25
2019-04-14T20:41:34.426Z,7.23
2019-04-14T20:44:05.896Z,7.12
2019-04-14T20:46:38.236Z,7.11
2019-04-14T20:49:09.896Z,7.21
2019-04-14T20:51:41.500Z,7.08
2019-04-14T20:54:12.995Z,7.07
2019-04-14T20:56:44.449Z,6.90
2019-04-14T20:59:15.870Z,6.99
2019-04-14T21:01:53.837Z,7.03
2019-04-14T21:04:32.589Z,7.04
2019-04-14T21:07:41.084Z,6.95
2019-04-14T21:10:23.134Z,6.97
2019-04-14T21:13:01.944Z,6.96
2019-04-14T21:15:41.780Z,6.86
2019-04-14T21:18:32.490Z,6.76
2019-04-14T21:21:21.713Z,6.88
2019-04-14T21:23:57.964Z,6.89
2019-04-14T21:26:46.310Z,6.90
2019-04-14T21:29:39.404Z,6.88
2019-04-14T21:32:26.234Z,6.89
2019-04-14T21:35:16.731Z,6.97
2019-04-14T21:37:54.281Z,6.88
2019-04-14T21:40:51.000Z,6.77
2019-04-14T21:43:23.611Z,6.62
2019-04-14T21:45:55.345Z,6.57
2019-04-14T21:48:26.719Z,6.55
2019-04-14T21:50:58.112Z,6.54
2019-04-14T21:53:29.428Z,6.58
2019-04-14T21:56:12.788Z,6.53
2019-04-14T21:58:52.058Z,6.48
2019-04-14T22:01:53.589Z,6.44
2019-04-14T22:04:46.342Z,6.45
2019-04-14T22:07:35.733Z,6.45
2019-04-14T22:10:33.603Z,6.49
2019-04-14T22:13:05.470Z,6.42
2019-04-14T22:15:36.871Z,6.42
2019-04-14T22:18:08.589Z,6.50
2019-04-14T22:20:40.308Z,6.49
2019-04-14T22:23:12.359Z,6.53
2019-04-14T22:25:43.801Z,6.47
2019-04-14T22:28:15.330Z,6.33
2019-04-14T22:30:46.797Z,6.26
2019-04-14T22:33:18.489Z,6.17
2019-04-14T22:35:50.048Z,6.20
2019-04-14T22:38:22.053Z,6.17
2019-04-14T22:40:53.547Z,6.16
2019-04-14T22:43:24.958Z,6.24
2019-04-14T22:45:56.454Z,6.23
2019-04-14T22:48:28.078Z,6.36
2019-04-14T22:50:59.538Z,6.30
2019-04-14T22:53:30.991Z,6.32
2019-04-14T22:56:02.354Z,6.45
2019-04-14T22:58:33.652Z,6.61
2019-04-14T23:01:33.639Z,6.66
2019-04-14T23:04:25.305Z,6.63
2019-04-14T23:07:11.737Z,6.47
2019-04-14T23:09:50.579Z,6.36
2019-04-14T23:12:40.813Z,6.38
2019-04-14T23:15:31.550Z,6.53
2019-04-14T23:18:16.384Z,6.52
2019-04-14T23:21:15.726Z,6.61
2019-04-14T23:23:54.563Z,6.55
2019-04-14T23:26:26.369Z,6.50
2019-04-14T23:28:57.870Z,6.51
2019-04-14T23:31:29.407Z,6.51
2019-04-14T23:34:00.917Z,6.60
2019-04-14T23:36:32.473Z,6.63
2019-04-14T23:39:06.257Z,6.64
2019-04-14T23:41:38.845Z,6.58
2019-04-14T23:44:10.245Z,6.61
2019-04-14T23:46:42.045Z,6.70
2019-04-14T23:49:13.521Z,6.69
2019-04-14T23:51:45.031Z,6.70
2019-04-14T23:54:16.415Z,6.50
2019-04-14T23:56:47.850Z,6.54
2019-04-14T23:59:19.440Z,6.55
